Alta, California
Current Conditions -  °F | °C
As of 9:52 PM on Wednesday 22 Oct 2014 (Local Time) from KBLU Reporting Station
Clear Clear  
Wind Chill: 50°   Ceiling: Unl
Heat Index: 50°   Visibility: 10mi
Dew Point: 32°   Wind: 5mph
Humidity: 50%   Direction: 130°SE
Pressure: 30.18"   Gusts: NA
Location:  39.21°N, 120.81°W
Report Text: KBLU 230452Z AUTO 13004KT 10SM CLR 10/00 A3018 RMK AO2 SLP172 T01000000 $
Loading
Personal Weather Stations






























Interactive Weather Map
Tropical Storm Tracking
New forecast layout! Learn more

10-Day Weather Forecast

Advertisements
Track Severe Weather on mobile